Curtin, Australia
Current Conditions -  °F | °C
As of 12:00 AM on Friday 28 Nov 2014 (Local Time) from YCIN Reporting Station
Clear Clear  
Wind Chill: 77°   Ceiling: Unl
Heat Index: 78°   Visibility: NA
Dew Point: 73°   Wind: 5mph
Humidity: 89%   Direction: 50°NE
Pressure: 29.77"   Gusts: NA
Location:  17.58°S, 123.83°E
Report Text: YCIN 271600Z AUTO 05004KT //// // NCD 25/23 Q1008
Loading
Personal Weather Stations






























Interactive Weather Map New forecast layout! Learn more

10-Day Weather Forecast

Advertisements
Track Severe Weather on mobile